Hanover, Maryland
Current Conditions -  °F | °C
As of 12:54 PM on Thursday 30 Oct 2014 (Local Time) from KBWI Reporting Station
Scattered Clouds Scattered Clouds  
Wind Chill: 56°   Ceiling: Unl
Heat Index: 56°   Visibility: 10mi
Dew Point: 38°   Wind: 6mph
Humidity: 51%   Direction: 350°N
Pressure: 30.04"   Gusts: NA
Location:  39.17°N, 76.74°W
Report Text: KBWI 301654Z 35005KT 10SM SCT043 13/03 A3004 RMK AO2 SLP172 T01330033
Loading
Personal Weather Stations






























Interactive Weather Map
Tropical Storm Tracking
New forecast layout! Learn more

10-Day Weather Forecast

Advertisements
Track Severe Weather on mobile